createdAt,value
2022-09-16T09:52:59.589Z,64.14
2022-09-16T09:53:59.433Z,61.89
2022-09-16T09:54:59.428Z,61.39
2022-09-16T09:55:59.414Z,61.08
2022-09-16T09:56:59.387Z,60.58
2022-09-16T09:57:59.387Z,60.17
2022-09-16T09:58:59.368Z,60.00
2022-09-16T09:59:59.350Z,60.41
2022-09-16T10:00:59.420Z,60.58
2022-09-16T10:01:59.411Z,61.29
2022-09-16T10:02:59.319Z,59.34
2022-09-16T10:03:59.316Z,59.52
2022-09-16T10:04:59.301Z,58.78
2022-09-16T10:05:59.293Z,57.24
2022-09-16T10:06:59.309Z,56.71
2022-09-16T10:07:59.273Z,57.39
2022-09-16T10:08:59.378Z,55.03
2022-09-16T10:09:59.234Z,53.22
2022-09-16T10:10:59.256Z,52.72
2022-09-16T10:11:59.221Z,54.70
2022-09-16T10:12:59.205Z,53.27
2022-09-16T10:13:59.208Z,52.47
2022-09-16T10:14:59.186Z,52.37
2022-09-16T10:15:59.280Z,52.55
2022-09-16T10:16:59.157Z,51.34
2022-09-16T10:17:59.149Z,51.84
2022-09-16T10:18:59.146Z,52.17
2022-09-16T10:19:59.145Z,54.58
2022-09-16T10:20:59.124Z,54.70
2022-09-16T10:21:59.104Z,52.89
2022-09-16T10:22:59.088Z,54.17
2022-09-16T10:23:59.094Z,53.67
2022-09-16T10:24:59.196Z,52.37
2022-09-16T10:25:59.076Z,51.79
2022-09-16T10:26:59.042Z,52.62
2022-09-16T10:27:59.042Z,53.34
2022-09-16T10:28:59.027Z,55.18
2022-09-16T10:29:59.009Z,55.31
2022-09-16T10:30:59.024Z,54.60
2022-09-16T10:31:59.046Z,55.43
2022-09-16T10:32:58.985Z,55.33
2022-09-16T10:33:58.966Z,55.54
2022-09-16T10:34:58.959Z,56.84
2022-09-16T10:35:58.962Z,56.71
2022-09-16T10:36:58.924Z,55.48
2022-09-16T10:37:58.913Z,55.35
2022-09-16T10:39:04.941Z,54.63
2022-09-16T10:39:59.932Z,53.90
2022-09-16T10:40:59.034Z,53.67
2022-09-16T10:41:58.871Z,52.24
2022-09-16T10:42:58.871Z,52.94
2022-09-16T10:43:58.857Z,52.57
2022-09-16T10:44:58.844Z,52.87
2022-09-16T10:45:58.878Z,52.87
2022-09-16T10:46:58.809Z,51.69
2022-09-16T10:48:00.941Z,52.22
2022-09-16T10:48:58.787Z,52.84
2022-09-16T10:49:58.776Z,52.67
2022-09-16T10:50:58.788Z,53.17
2022-09-16T10:51:58.750Z,53.09
2022-09-16T10:52:58.742Z,52.69
2022-09-16T10:53:58.730Z,53.60
2022-09-16T10:54:58.734Z,53.07
2022-09-16T10:55:58.714Z,54.80
2022-09-16T10:56:58.819Z,53.90
2022-09-16T10:57:59.664Z,54.71
2022-09-16T10:58:58.671Z,54.30
2022-09-16T10:59:58.652Z,53.30
2022-09-16T11:00:58.762Z,55.18
2022-09-16T11:01:59.035Z,54.91
2022-09-16T11:02:58.650Z,55.41
2022-09-16T11:03:58.612Z,55.68
2022-09-16T11:04:58.603Z,55.21
2022-09-16T11:05:58.629Z,56.59
2022-09-16T11:06:58.577Z,56.19
2022-09-16T11:07:58.569Z,58.27
2022-09-16T11:08:58.564Z,57.37
2022-09-16T11:09:58.546Z,54.25
2022-09-16T11:10:58.545Z,52.84
2022-09-16T11:11:58.519Z,52.55
2022-09-16T11:12:58.652Z,51.64
2022-09-16T11:13:58.498Z,52.04
2022-09-16T11:14:58.504Z,51.97
2022-09-16T11:15:58.526Z,52.67
2022-09-16T11:16:58.462Z,52.19
2022-09-16T11:17:58.453Z,52.19
2022-09-16T11:18:58.632Z,52.69
2022-09-16T11:19:58.434Z,53.60
2022-09-16T11:20:58.428Z,52.59
2022-09-16T11:21:58.410Z,52.89
2022-09-16T11:22:58.396Z,52.92
2022-09-16T11:23:58.386Z,52.54
2022-09-16T11:24:58.368Z,52.94
2022-09-16T11:25:58.372Z,53.25
2022-09-16T11:26:58.347Z,53.07
2022-09-16T11:27:58.340Z,53.65
2022-09-16T11:28:58.445Z,53.45
2022-09-16T11:29:58.316Z,53.65
2022-09-16T11:30:58.539Z,55.54
2022-09-16T11:31:58.287Z,54.13
2022-09-16T11:33:00.976Z,55.33
2022-09-16T11:33:58.694Z,55.41
2022-09-16T11:34:58.251Z,53.47
2022-09-16T11:35:58.261Z,53.77
2022-09-16T11:36:58.227Z,52.04
2022-09-16T11:37:58.216Z,54.63
2022-09-16T11:38:58.369Z,52.92
2022-09-16T11:39:58.249Z,51.99
2022-09-16T11:40:58.202Z,50.89
2022-09-16T11:41:58.170Z,51.76
2022-09-16T11:42:58.166Z,52.07
2022-09-16T11:43:58.151Z,52.75
2022-09-16T11:44:58.279Z,49.54
2022-09-16T11:45:58.142Z,51.64
2022-09-16T11:46:58.115Z,51.94
2022-09-16T11:47:58.107Z,50.01
2022-09-16T11:48:58.094Z,52.01
2022-09-16T11:49:58.082Z,50.81
2022-09-16T11:50:58.074Z,49.99
2022-09-16T11:51:58.056Z,49.58
2022-09-16T11:53:03.918Z,49.08
2022-09-16T11:54:00.098Z,48.79
2022-09-16T11:54:58.126Z,49.99
2022-09-16T11:55:58.017Z,48.36
2022-09-16T11:56:58.000Z,49.26
2022-09-16T11:57:57.991Z,49.66
2022-09-16T11:58:58.002Z,48.66
2022-09-16T11:59:57.965Z,48.36
2022-09-16T12:00:58.096Z,48.16
2022-09-16T12:01:58.015Z,48.76
2022-09-16T12:02:58.239Z,47.16
2022-09-16T12:03:57.934Z,47.66
2022-09-16T12:04:57.908Z,46.96
2022-09-16T12:05:57.923Z,47.86
2022-09-16T12:06:57.899Z,47.44
2022-09-16T12:07:57.881Z,49.24
2022-09-16T12:08:57.861Z,49.64
2022-09-16T12:09:57.855Z,49.84
2022-09-16T12:10:57.863Z,48.24
2022-09-16T12:11:57.839Z,46.74
2022-09-16T12:12:57.824Z,46.34
2022-09-16T12:14:05.484Z,48.54
2022-09-16T12:15:03.165Z,47.34
2022-09-16T12:15:58.802Z,48.24
2022-09-16T12:16:57.897Z,48.74
2022-09-16T12:17:57.774Z,49.64
2022-09-16T12:18:57.756Z,48.54
2022-09-16T12:19:57.761Z,48.74
2022-09-16T12:20:57.752Z,48.61
2022-09-16T12:21:58.291Z,48.61
2022-09-16T12:22:57.718Z,47.92
2022-09-16T12:23:57.700Z,48.10
2022-09-16T12:24:57.680Z,46.39
2022-09-16T12:25:57.691Z,45.09
2022-09-16T12:26:57.666Z,44.79
2022-09-16T12:27:57.652Z,44.59
2022-09-16T12:28:57.641Z,46.09
2022-09-16T12:29:57.630Z,44.51
2022-09-16T12:30:57.660Z,44.32
2022-09-16T12:31:57.609Z,44.54
2022-09-16T12:32:57.725Z,45.14
2022-09-16T12:33:57.594Z,44.56
2022-09-16T12:34:57.580Z,45.88
2022-09-16T12:35:57.589Z,45.88
2022-09-16T12:36:57.547Z,44.70
2022-09-16T12:37:57.540Z,44.90
2022-09-16T12:38:57.524Z,45.62
2022-09-16T12:39:57.554Z,46.03
2022-09-16T12:40:57.522Z,44.92
2022-09-16T12:41:57.492Z,46.12
2022-09-16T12:42:57.485Z,47.43
2022-09-16T12:44:06.384Z,47.63
2022-09-16T12:44:58.464Z,46.73
2022-09-16T12:45:57.477Z,46.91
2022-09-16T12:46:57.491Z,46.41
2022-09-16T12:47:57.430Z,45.50
2022-09-16T12:48:57.561Z,46.41
2022-09-16T12:49:57.409Z,45.78
2022-09-16T12:50:57.411Z,44.98
2022-09-16T12:51:57.389Z,46.38
2022-09-16T12:52:57.382Z,45.78
2022-09-16T12:53:57.359Z,46.58
2022-09-16T12:55:07.852Z,46.18
2022-09-16T12:55:58.345Z,45.58
2022-09-16T12:56:57.323Z,46.68
2022-09-16T12:57:57.308Z,46.28
2022-09-16T12:58:57.367Z,46.48
2022-09-16T12:59:57.337Z,45.88
2022-09-16T13:00:57.291Z,45.68
2022-09-16T13:01:59.778Z,46.18
2022-09-16T13:02:57.408Z,45.88
2022-09-16T13:03:57.300Z,46.98
2022-09-16T13:04:57.360Z,46.38
2022-09-16T13:05:57.240Z,44.78
2022-09-16T13:06:57.210Z,45.18
2022-09-16T13:07:57.219Z,45.88
2022-09-16T13:08:57.193Z,44.78
2022-09-16T13:09:57.181Z,45.68
2022-09-16T13:11:11.587Z,44.78
2022-09-16T13:12:58.139Z,44.70
2022-09-16T13:13:57.147Z,44.80
2022-09-16T13:14:57.123Z,44.70
2022-09-16T13:15:57.259Z,45.90
2022-09-16T13:16:57.101Z,46.11
2022-09-16T13:17:57.105Z,45.90
2022-09-16T13:18:57.075Z,45.80
2022-09-16T13:19:57.067Z,45.90
2022-09-16T13:20:57.193Z,45.90
2022-09-16T13:21:57.056Z,45.90
2022-09-16T13:22:57.026Z,45.90
2022-09-16T13:23:57.018Z,45.10
2022-09-16T13:24:57.003Z,47.11
2022-09-16T13:25:57.026Z,46.30
2022-09-16T13:26:56.991Z,46.11
2022-09-16T13:27:56.973Z,45.80
2022-09-16T13:28:57.029Z,44.70
2022-09-16T13:29:56.955Z,44.70
2022-09-16T13:30:57.006Z,45.80
2022-09-16T13:32:56.923Z,45.80
2022-09-16T13:33:56.933Z,45.80
2022-09-16T13:34:56.944Z,45.30
2022-09-16T13:35:56.904Z,44.30
2022-09-16T13:36:57.025Z,44.00
2022-09-16T13:37:56.870Z,43.80
2022-09-16T13:38:56.883Z,44.40
2022-09-16T13:39:56.901Z,44.20
2022-09-16T13:40:56.844Z,45.10
2022-09-16T13:41:56.806Z,41.99
2022-09-16T13:42:56.800Z,42.30
2022-09-16T13:43:56.778Z,42.72
2022-09-16T13:44:56.791Z,42.21
2022-09-16T13:45:56.819Z,42.82
2022-09-16T13:46:56.756Z,42.44
2022-09-16T13:47:56.749Z,44.95
2022-09-16T13:48:56.763Z,44.74
2022-09-16T13:49:56.709Z,44.87
2022-09-16T13:50:56.766Z,44.64
2022-09-16T13:51:56.716Z,45.65
2022-09-16T13:52:56.800Z,45.84
2022-09-16T13:53:56.755Z,46.25
2022-09-16T13:55:12.581Z,44.95
2022-09-16T13:55:57.711Z,46.45
2022-09-16T13:56:56.647Z,45.22
2022-09-16T13:57:56.666Z,45.95
2022-09-16T13:58:56.621Z,44.84
2022-09-16T13:59:56.610Z,44.84
2022-09-16T14:00:56.606Z,44.92
2022-09-16T14:01:59.975Z,46.23
2022-09-16T14:02:56.742Z,45.02
2022-09-16T14:03:56.576Z,45.92
2022-09-16T14:04:56.569Z,44.52
2022-09-16T14:05:56.567Z,45.84
2022-09-16T14:06:56.542Z,46.65
2022-09-16T14:07:56.532Z,45.34
2022-09-16T14:08:56.626Z,45.45
2022-09-16T14:09:56.512Z,44.84
2022-09-16T14:10:56.513Z,44.04
2022-09-16T14:11:56.477Z,43.74
2022-09-16T14:12:56.497Z,44.44
2022-09-16T14:14:57.421Z,44.74
2022-09-16T14:15:56.564Z,44.24
2022-09-16T14:16:56.418Z,45.14
2022-09-16T14:17:56.412Z,46.35
2022-09-16T14:18:56.490Z,45.84
2022-09-16T14:19:56.381Z,45.77
2022-09-16T14:20:56.562Z,46.27
2022-09-16T14:21:56.455Z,45.97
2022-09-16T14:22:56.331Z,46.57
2022-09-16T14:23:56.327Z,46.09
2022-09-16T14:25:06.112Z,46.69
2022-09-16T14:25:57.320Z,46.69
2022-09-16T14:26:56.294Z,46.80
2022-09-16T14:27:56.293Z,47.39
2022-09-16T14:28:56.293Z,48.90
2022-09-16T14:29:56.276Z,46.89
2022-09-16T14:30:56.369Z,46.92
2022-09-16T14:31:56.271Z,47.39
2022-09-16T14:32:56.212Z,46.22
2022-09-16T14:33:56.857Z,46.72
2022-09-16T14:34:56.201Z,47.32
2022-09-16T14:35:56.201Z,47.52
2022-09-16T14:36:56.165Z,47.22
2022-09-16T14:37:56.169Z,47.02
2022-09-16T14:38:56.163Z,48.12
2022-09-16T14:39:56.189Z,48.22
2022-09-16T14:40:56.269Z,46.84
2022-09-16T14:41:56.109Z,47.44
2022-09-16T14:42:56.154Z,47.24
2022-09-16T14:43:56.130Z,46.34
2022-09-16T14:44:56.131Z,47.44
2022-09-16T14:45:56.112Z,44.83
2022-09-16T14:47:04.722Z,46.14
2022-09-16T14:47:57.042Z,46.44
2022-09-16T14:48:56.146Z,46.34
2022-09-16T14:49:56.072Z,45.83
2022-09-16T14:50:56.111Z,45.94
2022-09-16T14:51:56.009Z,46.03
2022-09-16T14:52:56.011Z,46.61
2022-09-16T14:54:11.801Z,45.91
2022-09-16T14:54:56.958Z,46.41
2022-09-16T14:55:55.969Z,46.72
2022-09-16T14:56:56.060Z,44.81
2022-09-16T14:57:55.933Z,45.01
2022-09-16T14:58:55.924Z,46.03
2022-09-16T14:59:55.919Z,44.10
2022-09-16T15:00:55.905Z,45.81
2022-09-16T15:01:55.912Z,44.10
2022-09-16T15:02:55.918Z,43.60
2022-09-16T15:03:55.859Z,42.61
2022-09-16T15:04:55.845Z,42.92
2022-09-16T15:05:55.861Z,43.02
2022-09-16T15:06:55.861Z,43.22
2022-09-16T15:08:13.266Z,42.82
2022-09-16T15:08:56.808Z,42.82
2022-09-16T15:09:55.814Z,43.12
2022-09-16T15:10:55.783Z,43.44
2022-09-16T15:11:55.772Z,43.44
2022-09-16T15:12:55.883Z,44.24
2022-09-16T15:13:55.752Z,44.45
2022-09-16T15:14:55.745Z,43.24
2022-09-16T15:15:55.787Z,44.75
2022-09-16T15:16:55.715Z,43.96
2022-09-16T15:18:56.690Z,43.34
2022-09-16T15:19:55.682Z,44.47
2022-09-16T15:20:55.684Z,44.77
2022-09-16T15:21:55.659Z,43.96
2022-09-16T15:22:55.650Z,44.57
2022-09-16T15:23:55.636Z,45.37
2022-09-16T15:24:55.622Z,45.78
2022-09-16T15:25:55.628Z,45.17
2022-09-16T15:26:55.598Z,44.29
2022-09-16T15:27:55.603Z,45.70
2022-09-16T15:28:55.699Z,46.80
2022-09-16T15:29:55.574Z,45.70
2022-09-16T15:30:55.677Z,46.20
2022-09-16T15:31:55.550Z,46.20
2022-09-16T15:32:55.545Z,46.50
2022-09-16T15:33:55.540Z,46.10
2022-09-16T15:34:55.509Z,45.79
2022-09-16T15:35:55.519Z,46.70
2022-09-16T15:36:55.496Z,46.70
2022-09-16T15:37:55.484Z,46.40
2022-09-16T15:38:55.479Z,46.50
2022-09-16T15:39:55.530Z,46.91
2022-09-16T15:40:55.461Z,46.70
2022-09-16T15:41:55.439Z,47.00
2022-09-16T15:42:55.424Z,46.62
2022-09-16T15:43:55.413Z,46.70
2022-09-16T15:44:55.531Z,47.61
2022-09-16T15:45:55.452Z,47.31
2022-09-16T15:46:55.378Z,46.91
2022-09-16T15:47:55.371Z,48.61
2022-09-16T15:48:55.362Z,48.52
2022-09-16T15:49:55.348Z,48.54
2022-09-16T15:50:55.356Z,47.81
2022-09-16T15:51:55.323Z,47.81
2022-09-16T15:52:55.317Z,47.63
2022-09-16T15:53:55.295Z,47.13
2022-09-16T15:54:55.288Z,47.33
2022-09-16T15:55:55.297Z,47.74
2022-09-16T15:56:55.271Z,48.64
2022-09-16T15:57:55.253Z,48.64
2022-09-16T15:58:55.247Z,49.04
2022-09-16T15:59:55.246Z,49.04
2022-09-16T16:00:55.357Z,49.15
2022-09-16T16:01:55.297Z,50.15
2022-09-16T16:02:55.228Z,50.15
2022-09-16T16:03:55.198Z,49.97
2022-09-16T16:04:55.179Z,49.85
2022-09-16T16:05:55.190Z,48.66
2022-09-16T16:06:55.159Z,49.77
2022-09-16T16:07:55.163Z,50.57
2022-09-16T16:08:55.137Z,51.18
2022-09-16T16:09:55.126Z,49.87
2022-09-16T16:10:55.132Z,50.37
2022-09-16T16:11:55.098Z,49.97
2022-09-16T16:12:55.093Z,50.48
2022-09-16T16:13:59.764Z,51.99
2022-09-16T16:14:56.089Z,52.80
2022-09-16T16:15:55.130Z,52.11
2022-09-16T16:17:12.137Z,50.68
2022-09-16T16:17:56.038Z,50.70
2022-09-16T16:18:55.027Z,49.90
2022-09-16T16:19:55.012Z,50.70
2022-09-16T16:20:55.022Z,51.61
2022-09-16T16:21:54.987Z,50.80
2022-09-16T16:22:55.421Z,50.60
2022-09-16T16:23:54.973Z,51.20
2022-09-16T16:24:54.957Z,51.20
2022-09-16T16:25:54.964Z,52.51
2022-09-16T16:26:56.897Z,53.42
2022-09-16T16:27:54.937Z,53.12
2022-09-16T16:28:54.912Z,51.51
2022-09-16T16:29:54.902Z,51.81
2022-09-16T16:30:54.956Z,52.01
2022-09-16T16:31:54.887Z,52.31
2022-09-16T16:32:54.992Z,52.72
2022-09-16T16:33:54.850Z,53.25
2022-09-16T16:34:54.840Z,54.23
2022-09-16T16:35:54.858Z,52.84
2022-09-16T16:36:55.113Z,51.61
2022-09-16T16:37:54.813Z,51.43
2022-09-16T16:38:54.798Z,50.73
2022-09-16T16:39:54.888Z,50.52
2022-09-16T16:40:54.797Z,51.43
2022-09-16T16:41:54.767Z,51.33
2022-09-16T16:42:54.759Z,50.73
2022-09-16T16:43:54.741Z,51.73
2022-09-16T16:44:54.737Z,51.73
2022-09-16T16:45:54.775Z,51.43
2022-09-16T16:46:54.709Z,52.54
2022-09-16T16:47:54.703Z,51.64
2022-09-16T16:48:54.805Z,52.04
2022-09-16T16:49:54.676Z,51.73
2022-09-16T16:50:54.679Z,51.93
2022-09-16T16:51:54.648Z,52.24
2022-09-16T16:52:54.652Z,51.93
2022-09-16T16:53:54.632Z,51.64
2022-09-16T16:54:54.623Z,51.73
2022-09-16T16:55:54.619Z,51.43
2022-09-16T16:56:54.596Z,51.64
2022-09-16T16:57:54.595Z,51.53
2022-09-16T16:58:54.585Z,52.16
2022-09-16T16:59:54.559Z,52.67
2022-09-16T17:00:54.566Z,52.16
2022-09-16T17:01:54.579Z,52.56
2022-09-16T17:02:54.605Z,52.87
2022-09-16T17:03:54.519Z,52.97
2022-09-16T17:04:54.619Z,53.07
2022-09-16T17:05:54.512Z,52.87
2022-09-16T17:07:21.337Z,53.38
2022-09-16T17:07:55.464Z,53.47
2022-09-16T17:08:54.459Z,53.27
2022-09-16T17:09:54.444Z,53.20
2022-09-16T17:10:54.446Z,53.09
2022-09-16T17:11:54.428Z,53.30
2022-09-16T17:12:54.410Z,53.20
2022-09-16T17:13:54.410Z,53.09
2022-09-16T17:14:54.387Z,53.60
2022-09-16T17:15:54.464Z,53.63
2022-09-16T17:16:54.370Z,53.60
2022-09-16T17:17:54.354Z,53.22
2022-09-16T17:18:54.341Z,52.92
2022-09-16T17:19:54.351Z,54.13
2022-09-16T17:20:54.460Z,53.12
2022-09-16T17:21:54.305Z,53.02
2022-09-16T17:22:54.316Z,53.42
2022-09-16T17:23:54.284Z,53.65
2022-09-16T17:24:54.272Z,53.42
2022-09-16T17:25:54.282Z,54.16
2022-09-16T17:26:54.256Z,53.45
2022-09-16T17:27:54.235Z,53.45
2022-09-16T17:28:54.235Z,53.45
2022-09-16T17:29:54.293Z,53.14
2022-09-16T17:30:54.255Z,53.34
2022-09-16T17:31:54.205Z,53.45
2022-09-16T17:32:54.181Z,53.65
2022-09-16T17:33:54.178Z,53.38
2022-09-16T17:34:54.168Z,53.55
2022-09-16T17:35:54.175Z,54.08
2022-09-16T17:36:54.253Z,54.18
2022-09-16T17:37:54.127Z,53.58
2022-09-16T17:38:54.109Z,53.75
2022-09-16T17:39:54.214Z,54.05
2022-09-16T17:40:54.102Z,54.08
2022-09-16T17:41:54.093Z,54.08
2022-09-16T17:42:54.066Z,53.78
2022-09-16T17:43:54.058Z,54.58
2022-09-16T17:44:54.054Z,54.69
2022-09-16T17:45:54.075Z,55.09
2022-09-16T17:46:54.012Z,54.99
2022-09-16T17:47:54.007Z,55.90
2022-09-16T17:48:53.996Z,55.60
2022-09-16T17:49:53.985Z,55.49
2022-09-16T17:50:53.996Z,55.80
2022-09-16T17:51:53.966Z,55.73
2022-09-16T17:52:54.072Z,55.42
2022-09-16T17:53:53.936Z,56.13
2022-09-16T17:54:53.930Z,56.02
2022-09-16T17:55:53.930Z,56.13
2022-09-16T17:56:53.900Z,56.02
2022-09-16T17:57:53.893Z,57.34
2022-09-16T17:58:53.880Z,56.94
2022-09-16T17:59:53.866Z,57.34
2022-09-16T18:00:53.869Z,57.54
2022-09-16T18:01:53.842Z,58.05
2022-09-16T18:02:53.907Z,59.16
2022-09-16T18:03:53.899Z,57.54
2022-09-16T18:04:53.863Z,58.69
2022-09-16T18:05:53.814Z,58.69
2022-09-16T18:06:53.790Z,58.07
2022-09-16T18:07:53.776Z,58.78
2022-09-16T18:08:53.915Z,58.89
2022-09-16T18:09:53.800Z,59.59
2022-09-16T18:10:53.817Z,59.49
2022-09-16T18:11:53.765Z,59.19
2022-09-16T18:12:53.719Z,59.59
2022-09-16T18:13:53.707Z,59.49
2022-09-16T18:14:53.696Z,59.80
2022-09-16T18:15:53.707Z,59.59
2022-09-16T18:16:53.746Z,60.03
2022-09-16T18:17:53.663Z,60.33
2022-09-16T18:18:53.647Z,60.53
2022-09-16T18:19:53.643Z,60.63
2022-09-16T18:20:53.649Z,60.30
2022-09-16T18:21:53.617Z,60.63
2022-09-16T18:22:53.605Z,60.63
2022-09-16T18:23:53.593Z,61.04
2022-09-16T18:24:53.703Z,61.24
2022-09-16T18:25:53.591Z,61.04
2022-09-16T18:26:53.564Z,61.14
2022-09-16T18:27:53.549Z,60.63
2022-09-16T18:29:10.363Z,60.63
2022-09-16T18:29:54.532Z,61.35
2022-09-16T18:30:53.619Z,61.44
2022-09-16T18:31:53.514Z,61.24
2022-09-16T18:32:53.493Z,60.94
2022-09-16T18:33:53.480Z,61.55
2022-09-16T18:34:53.473Z,61.55
2022-09-16T18:35:53.508Z,61.24
2022-09-16T18:36:53.475Z,61.65
2022-09-16T18:37:53.466Z,62.05
2022-09-16T18:38:53.475Z,61.75
2022-09-16T18:39:53.490Z,61.35
2022-09-16T18:40:53.523Z,62.05
2022-09-16T18:41:53.416Z,61.47
2022-09-16T18:42:53.385Z,62.15
2022-09-16T18:43:53.361Z,61.88
2022-09-16T18:44:53.350Z,61.95
2022-09-16T18:45:53.449Z,61.68
2022-09-16T18:46:53.342Z,61.78
2022-09-16T18:47:53.328Z,61.78
2022-09-16T18:48:53.311Z,61.78
2022-09-16T18:49:53.301Z,61.75
2022-09-16T18:50:53.304Z,61.98
2022-09-16T18:51:53.290Z,61.78
2022-09-16T18:52:53.266Z,61.88
2022-09-16T18:53:53.258Z,62.18
2022-09-16T18:54:53.241Z,61.88
2022-09-16T18:55:53.243Z,61.98
2022-09-16T18:56:53.341Z,61.78
2022-09-16T18:57:53.211Z,62.29
2022-09-16T18:59:17.262Z,61.78
2022-09-16T18:59:54.225Z,62.08
2022-09-16T19:00:53.236Z,62.18
2022-09-16T19:01:53.416Z,62.11
2022-09-16T19:02:53.257Z,61.88
2022-09-16T19:03:53.136Z,61.98
2022-09-16T19:04:53.135Z,61.98
2022-09-16T19:05:53.128Z,62.38
2022-09-16T19:06:53.114Z,62.29
2022-09-16T19:07:53.114Z,62.38
2022-09-16T19:08:53.093Z,62.79
2022-09-16T19:09:53.067Z,62.69
2022-09-16T19:10:53.076Z,62.62
2022-09-16T19:11:53.070Z,62.72
2022-09-16T19:12:53.180Z,63.09
2022-09-16T19:13:53.044Z,64.14
2022-09-16T19:14:53.038Z,64.11
2022-09-16T19:15:53.036Z,64.11
2022-09-16T19:16:53.005Z,64.72
2022-09-16T19:17:53.065Z,64.64
2022-09-16T19:18:53.011Z,64.04
2022-09-16T19:19:52.981Z,64.64
2022-09-16T19:20:52.961Z,64.44
2022-09-16T19:21:52.949Z,64.75
2022-09-16T19:22:52.955Z,64.85
2022-09-16T19:23:52.928Z,64.85
2022-09-16T19:24:52.899Z,65.15
2022-09-16T19:25:52.912Z,65.36
2022-09-16T19:26:52.903Z,65.15
2022-09-16T19:27:52.872Z,64.95
2022-09-16T19:28:52.995Z,66.06
2022-09-16T19:29:52.854Z,66.57
2022-09-16T19:30:52.878Z,66.77
2022-09-16T19:31:52.911Z,66.57
2022-09-16T19:32:52.895Z,66.70
2022-09-16T19:33:52.807Z,66.70
2022-09-16T19:34:52.802Z,66.40
2022-09-16T19:35:52.807Z,67.21
2022-09-16T19:36:52.770Z,67.00
2022-09-16T19:37:52.756Z,67.92
2022-09-16T19:38:52.766Z,68.43
2022-09-16T19:39:52.813Z,67.72
2022-09-16T19:40:52.756Z,69.34
2022-09-16T19:41:52.708Z,70.65
2022-09-16T19:42:52.710Z,71.57
2022-09-16T19:43:52.701Z,71.97
2022-09-16T19:44:52.787Z,72.21
2022-09-16T19:45:52.774Z,73.12
2022-09-16T19:46:52.764Z,74.68
2022-09-16T19:47:52.648Z,75.56
2022-09-16T19:48:52.650Z,76.61
2022-09-16T19:49:52.642Z,77.01
2022-09-16T19:50:52.645Z,78.13
2022-09-16T19:51:52.617Z,79.79
2022-09-16T19:52:52.596Z,80.71
2022-09-16T19:53:52.593Z,81.52
2022-09-16T19:54:52.558Z,83.69
2022-09-16T19:55:53.186Z,85.11
2022-09-16T19:56:52.581Z,85.62
2022-09-16T19:57:52.529Z,85.96
2022-09-16T19:58:52.517Z,87.18
2022-09-16T19:59:52.509Z,88.10
2022-09-16T20:00:56.148Z,88.50
2022-09-16T20:01:52.553Z,88.85
2022-09-16T20:02:52.542Z,89.15
2022-09-16T20:03:52.465Z,88.75
2022-09-16T20:04:52.454Z,88.44
2022-09-16T20:05:52.468Z,89.40
2022-09-16T20:06:52.430Z,88.89
2022-09-16T20:07:52.411Z,89.50
2022-09-16T20:08:52.406Z,89.70
2022-09-16T20:09:52.389Z,90.92
2022-09-16T20:10:52.394Z,90.46
2022-09-16T20:11:52.377Z,90.01
2022-09-16T20:12:55.004Z,90.05
2022-09-16T20:13:53.375Z,90.46
2022-09-16T20:14:52.334Z,90.16
2022-09-16T20:15:52.347Z,89.64
2022-09-16T20:16:52.500Z,89.85
2022-09-16T20:17:52.298Z,90.05
2022-09-16T20:18:52.287Z,89.95
2022-09-16T20:19:52.277Z,90.36
2022-09-16T20:20:52.294Z,90.86
2022-09-16T20:21:52.281Z,90.05
2022-09-16T20:22:52.242Z,89.75
2022-09-16T20:23:52.233Z,90.66
2022-09-16T20:25:06.522Z,90.46
2022-09-16T20:25:53.220Z,90.66
2022-09-16T20:26:52.192Z,90.86
2022-09-16T20:27:52.183Z,90.97
2022-09-16T20:28:52.168Z,91.11
2022-09-16T20:29:52.178Z,91.58
2022-09-16T20:30:52.170Z,91.38
2022-09-16T20:31:52.224Z,92.03
2022-09-16T20:32:52.259Z,90.60
2022-09-16T20:33:52.115Z,91.11
2022-09-16T20:34:52.098Z,91.11
2022-09-16T20:35:52.100Z,91.72
2022-09-16T20:36:52.076Z,91.42
2022-09-16T20:37:52.065Z,91.83
2022-09-16T20:38:52.056Z,92.03
2022-09-16T20:39:52.082Z,92.13
2022-09-16T20:40:52.058Z,92.03
2022-09-16T20:41:52.029Z,92.07
2022-09-16T20:42:52.037Z,92.07
2022-09-16T20:43:51.997Z,91.77
2022-09-16T20:44:52.007Z,92.18
2022-09-16T20:45:52.024Z,92.54
2022-09-16T20:46:51.961Z,92.48
2022-09-16T20:47:51.956Z,92.48
2022-09-16T20:48:52.058Z,92.48
2022-09-16T20:49:52.003Z,92.99
2022-09-16T20:50:51.933Z,92.48
2022-09-16T20:51:51.913Z,93.09
2022-09-16T20:52:51.896Z,93.29
2022-09-16T20:53:51.881Z,93.33
2022-09-16T20:54:51.915Z,92.93
2022-09-16T20:55:51.881Z,93.90
2022-09-16T20:56:51.870Z,93.64
2022-09-16T20:57:51.844Z,93.74
2022-09-16T20:58:51.843Z,93.24
2022-09-16T20:59:51.818Z,93.24
2022-09-16T21:00:51.837Z,93.74
2022-09-16T21:01:51.848Z,93.69
2022-09-16T21:02:51.787Z,93.28
2022-09-16T21:03:51.776Z,94.30
2022-09-16T21:04:51.883Z,94.50
2022-09-16T21:05:51.805Z,94.30
2022-09-16T21:06:51.745Z,94.50
2022-09-16T21:07:51.734Z,94.50
2022-09-16T21:08:51.741Z,94.50
2022-09-16T21:09:51.701Z,94.91
2022-09-16T21:10:51.710Z,94.91
2022-09-16T21:11:51.700Z,95.28
2022-09-16T21:12:51.670Z,95.62
2022-09-16T21:13:51.654Z,95.42
2022-09-16T21:14:51.644Z,96.30
2022-09-16T21:15:51.816Z,96.09
2022-09-16T21:16:51.726Z,95.98
2022-09-16T21:17:51.627Z,95.83
2022-09-16T21:18:51.643Z,95.83
2022-09-16T21:19:51.593Z,95.93
2022-09-16T21:20:51.718Z,96.14
2022-09-16T21:21:51.586Z,95.83
2022-09-16T21:22:51.583Z,96.64
2022-09-16T21:23:51.552Z,96.50
2022-09-16T21:24:51.535Z,96.75
2022-09-16T21:25:51.561Z,97.36
2022-09-16T21:26:51.520Z,96.80
2022-09-16T21:27:51.529Z,96.95
2022-09-16T21:28:51.498Z,96.84
2022-09-16T21:29:51.502Z,97.16
2022-09-16T21:30:51.492Z,97.16
2022-09-16T21:31:51.622Z,97.36
2022-09-16T21:32:51.451Z,96.95
2022-09-16T21:33:51.450Z,97.87
2022-09-16T21:34:51.647Z,97.77
2022-09-16T21:35:51.459Z,97.77
2022-09-16T21:36:51.565Z,97.56
2022-09-16T21:37:51.462Z,98.18
2022-09-16T21:38:51.386Z,98.07
2022-09-16T21:39:51.433Z,98.27
2022-09-16T21:40:51.398Z,97.77
2022-09-16T21:41:51.352Z,98.27
2022-09-16T21:42:51.335Z,98.89
2022-09-16T21:43:51.339Z,98.58
2022-09-16T21:44:51.310Z,98.68
2022-09-16T21:45:51.490Z,98.38
2022-09-16T21:46:51.332Z,98.68
2022-09-16T21:47:51.280Z,98.73
2022-09-16T21:48:51.274Z,98.68
2022-09-16T21:49:51.272Z,98.99
2022-09-16T21:50:51.259Z,98.83
2022-09-16T21:51:51.253Z,99.60
2022-09-16T21:52:51.358Z,99.65
2022-09-16T21:53:51.223Z,99.54
2022-09-16T21:54:51.231Z,99.75
2022-09-16T21:55:51.214Z,99.44
2022-09-16T21:56:51.254Z,99.24
2022-09-16T21:57:51.168Z,99.44
2022-09-16T21:58:51.160Z,99.34
2022-09-16T21:59:51.400Z,99.65
2022-09-16T22:00:51.187Z,99.75
2022-09-16T22:01:51.307Z,99.95
2022-09-16T22:02:51.162Z,99.75
2022-09-16T22:03:51.111Z,99.34
2022-09-16T22:04:51.086Z,99.44
2022-09-16T22:05:51.107Z,99.85
2022-09-16T22:06:51.107Z,99.85
2022-09-16T22:07:51.052Z,99.99
2022-09-16T22:08:51.170Z,99.99
2022-09-16T22:09:51.063Z,99.99
2022-09-16T22:10:51.044Z,99.85
2022-09-16T22:11:51.018Z,99.99
2022-09-16T22:12:51.060Z,99.99
2022-09-16T22:13:50.989Z,99.99
2022-09-16T22:14:50.985Z,99.99
2022-09-16T22:15:51.031Z,99.99
2022-09-16T22:16:51.023Z,99.99
2022-09-16T22:17:51.931Z,99.99
2022-09-16T22:18:50.938Z,99.99
2022-09-16T22:19:50.943Z,99.99
2022-09-16T22:20:50.944Z,99.99
2022-09-16T22:21:50.909Z,99.99
2022-09-16T22:22:50.891Z,99.99
2022-09-16T22:23:50.915Z,99.99
2022-09-16T22:24:50.973Z,99.99
2022-09-16T22:25:50.879Z,99.99
2022-09-16T22:26:50.914Z,99.99
2022-09-16T22:27:50.832Z,99.99
2022-09-16T22:28:50.829Z,99.99
2022-09-16T22:29:50.810Z,99.99
2022-09-16T22:30:50.838Z,99.99
2022-09-16T22:31:50.913Z,99.99
2022-09-16T22:32:50.776Z,99.99
2022-09-16T22:33:50.789Z,99.99
2022-09-16T22:34:50.750Z,99.99
2022-09-16T22:35:50.779Z,99.99
2022-09-16T22:36:50.729Z,99.99
2022-09-16T22:37:50.786Z,99.99
2022-09-16T22:38:50.710Z,99.99
2022-09-16T22:39:50.740Z,99.99
2022-09-16T22:40:50.822Z,99.99
2022-09-16T22:41:50.666Z,99.99
2022-09-16T22:42:50.679Z,99.99
2022-09-16T22:43:50.647Z,99.99
2022-09-16T22:44:50.634Z,99.99
2022-09-16T22:45:50.638Z,99.99
2022-09-16T22:46:50.680Z,99.99
2022-09-16T22:47:50.602Z,99.99
2022-09-16T22:48:50.602Z,99.99